Time;durP1;ratioP1;P1;durP2;ratioP2;P2;SDS_P1;SDS_P2;PMS_P1;PMS_P2;Temp;Humidity;BMP_temperature;BMP_pressure;BME280_temperature;BME280_humidity;BME280_pressure;Samples;Min_cycle;Max_cycle;Signal;HPM_P1;HPM_P2
2022/02/16 00:02:16;;;;;;;9.20;2.90;;;;;;;-141.50;100.00;63355.56;4914505;29;20409;-78
2022/02/16 00:04:42;;;;;;;9.00;2.45;;;;;;;-141.50;100.00;63355.56;4915014;29;20052;-77
2022/02/16 00:07:09;;;;;;;5.85;2.60;;;;;;;-141.50;100.00;63355.56;4914270;29;20055;-78
2022/02/16 00:09:36;;;;;;;7.78;2.92;;;;;;;-141.50;100.00;63355.56;4911245;29;20055;-78
2022/02/16 00:12:03;;;;;;;6.78;2.70;;;;;;;-141.50;100.00;63355.56;4913275;29;20112;-79
2022/02/16 00:14:29;;;;;;;6.30;2.88;;;;;;;-141.50;100.00;63355.56;4912007;29;20040;-78
2022/02/16 00:16:56;;;;;;;14.45;2.65;;;;;;;-141.50;100.00;63355.56;4913886;29;20048;-78
2022/02/16 00:19:23;;;;;;;6.70;2.50;;;;;;;-141.50;100.00;63355.56;4913473;29;20071;-76
2022/02/16 00:21:50;;;;;;;8.48;2.40;;;;;;;-141.50;100.00;63355.56;4912491;29;20445;-79
2022/02/16 00:24:17;;;;;;;7.90;2.88;;;;;;;-141.50;100.00;63355.56;4913867;29;20056;-80
2022/02/16 00:26:44;;;;;;;5.88;2.53;;;;;;;-141.50;100.00;63355.56;4915197;29;20484;-79
2022/02/16 00:29:13;;;;;;;6.07;2.42;;;;;;;-141.50;100.00;63355.56;4914169;29;20115;-78
2022/02/16 00:31:41;;;;;;;6.93;3.10;;;;;;;-141.50;100.00;63355.56;4912762;29;20060;-77
2022/02/16 00:34:08;;;;;;;9.82;2.70;;;;;;;-141.50;100.00;63355.56;4914589;29;20059;-77
2022/02/16 00:36:35;;;;;;;6.95;2.63;;;;;;;-141.50;100.00;63355.56;4914377;29;20081;-79
2022/02/16 00:39:03;;;;;;;8.25;2.55;;;;;;;-141.50;100.00;63355.56;4914998;29;20052;-78
2022/02/16 00:41:30;;;;;;;5.68;2.25;;;;;;;-141.50;100.00;63355.56;4913674;29;20052;-76
2022/02/16 00:43:56;;;;;;;8.07;2.10;;;;;;;-141.50;100.00;63355.56;4914094;29;20063;-78
2022/02/16 00:46:23;;;;;;;6.07;2.22;;;;;;;-141.50;100.00;63355.56;4916105;29;20107;-79
2022/02/16 00:48:50;;;;;;;11.20;2.42;;;;;;;-141.50;100.00;63355.56;4916251;29;20087;-79
2022/02/16 00:51:17;;;;;;;9.88;2.00;;;;;;;-141.50;100.00;63355.56;4913022;29;20119;-77
2022/02/16 00:53:43;;;;;;;5.75;2.13;;;;;;;-141.50;100.00;63355.56;4928081;29;20110;-80
2022/02/16 00:56:10;;;;;;;8.27;2.05;;;;;;;-141.50;100.00;63355.56;4935473;29;20131;-79
2022/02/16 00:58:36;;;;;;;5.03;1.90;;;;;;;-141.50;100.00;63355.56;4934484;29;20106;-79
2022/02/16 01:01:03;;;;;;;7.43;2.05;;;;;;;-141.50;100.00;63355.56;4924915;29;20062;-77
2022/02/16 01:03:29;;;;;;;5.47;2.05;;;;;;;-141.50;100.00;63355.56;4914078;29;20426;-79
2022/02/16 01:05:56;;;;;;;7.32;1.90;;;;;;;-141.50;100.00;63355.56;4914303;29;20191;-77
2022/02/16 01:08:22;;;;;;;5.22;1.67;;;;;;;-141.50;100.00;63355.56;4913327;29;20048;-77
2022/02/16 01:10:50;;;;;;;10.02;1.70;;;;;;;-141.50;100.00;63355.56;4918577;29;20112;-77
2022/02/16 01:13:16;;;;;;;3.38;1.75;;;;;;;-141.50;100.00;63355.56;4915021;29;20115;-76
2022/02/16 01:15:42;;;;;;;7.20;1.88;;;;;;;-141.50;100.00;63355.56;4912959;29;20048;-77
2022/02/16 01:18:09;;;;;;;6.22;1.90;;;;;;;-141.50;100.00;63355.56;4913114;29;20083;-77
2022/02/16 01:20:36;;;;;;;7.72;1.90;;;;;;;-141.50;100.00;63355.56;4912041;29;20056;-78
2022/02/16 01:23:03;;;;;;;5.45;2.00;;;;;;;-141.50;100.00;63355.56;4913427;29;20240;-77
2022/02/16 01:25:29;;;;;;;6.68;1.60;;;;;;;-141.50;100.00;63355.56;4912742;29;20052;-78
2022/02/16 01:27:57;;;;;;;7.30;2.05;;;;;;;-141.50;100.00;63355.56;4913053;29;20062;-78
2022/02/16 01:30:23;;;;;;;4.28;1.50;;;;;;;-141.50;100.00;63355.56;4911620;29;20070;-78
2022/02/16 01:32:50;;;;;;;5.28;1.77;;;;;;;-141.50;100.00;63355.56;4912536;29;20155;-77
2022/02/16 01:35:16;;;;;;;6.78;1.90;;;;;;;-141.50;100.00;63355.56;4912088;29;20071;-77
2022/02/16 01:37:43;;;;;;;5.35;1.60;;;;;;;-141.50;100.00;63355.56;4911032;29;20481;-76
2022/02/16 01:40:11;;;;;;;6.07;1.73;;;;;;;-141.50;100.00;63355.56;4909649;29;20141;-77
2022/02/16 01:42:37;;;;;;;5.07;1.58;;;;;;;-141.50;100.00;63355.56;4912652;29;20087;-77
2022/02/16 01:45:05;;;;;;;7.25;1.65;;;;;;;-141.50;100.00;63355.56;4910597;29;20107;-77
2022/02/16 01:47:31;;;;;;;7.43;1.67;;;;;;;-141.50;100.00;63355.56;4911926;29;20147;-78
2022/02/16 01:49:58;;;;;;;5.80;1.38;;;;;;;-141.50;100.00;63355.56;4911196;29;20051;-79
2022/02/16 01:52:25;;;;;;;5.60;1.58;;;;;;;-141.50;100.00;63355.56;4910242;29;20092;-78
2022/02/16 01:54:51;;;;;;;5.60;1.50;;;;;;;-141.50;100.00;63355.56;4912113;29;20056;-77
2022/02/16 01:57:19;;;;;;;6.70;1.77;;;;;;;-141.50;100.00;63355.56;4911661;29;20079;-77
2022/02/16 01:59:47;;;;;;;4.20;1.60;;;;;;;-141.50;100.00;63355.56;4909496;29;20119;-77
2022/02/16 02:02:13;;;;;;;4.35;1.70;;;;;;;-141.50;100.00;63355.56;4912116;29;20060;-77
2022/02/16 02:04:40;;;;;;;6.35;1.70;;;;;;;-141.50;100.00;63355.56;4910136;29;20481;-77
2022/02/16 02:07:07;;;;;;;3.22;1.70;;;;;;;-141.50;100.00;63355.56;4911748;29;20052;-78
2022/02/16 02:09:33;;;;;;;4.20;1.52;;;;;;;-141.50;100.00;63355.56;4909883;29;20060;-76
2022/02/16 02:12:00;;;;;;;7.07;1.90;;;;;;;-141.50;100.00;63355.56;4912311;29;20457;-77
2022/02/16 02:14:26;;;;;;;9.27;1.73;;;;;;;-141.50;100.00;63355.56;4911134;29;20111;-77
2022/02/16 02:16:52;;;;;;;4.75;1.88;;;;;;;-141.50;100.00;63355.56;4911488;29;20108;-77
2022/02/16 02:19:19;;;;;;;4.28;1.65;;;;;;;-141.50;100.00;63355.56;4930585;29;20070;-77
2022/02/16 02:21:49;;;;;;;4.03;1.50;;;;;;;-141.50;100.00;63355.56;4929912;29;20056;-78
2022/02/16 02:24:16;;;;;;;4.03;1.90;;;;;;;-141.50;100.00;63355.56;4916392;29;20104;-77
2022/02/16 02:26:42;;;;;;;6.22;1.80;;;;;;;-141.50;100.00;63355.56;4912446;29;20048;-77
2022/02/16 02:29:09;;;;;;;7.47;2.22;;;;;;;-141.50;100.00;63355.56;4911378;29;20055;-78
2022/02/16 02:31:37;;;;;;;5.60;1.65;;;;;;;-141.50;100.00;63355.56;4910984;29;20139;-77
2022/02/16 02:34:05;;;;;;;8.23;1.77;;;;;;;-141.50;100.00;63355.56;4911744;29;20056;-77
2022/02/16 02:36:32;;;;;;;7.45;1.60;;;;;;;-141.50;100.00;63355.56;4911603;29;20049;-77
2022/02/16 02:38:59;;;;;;;2.38;1.50;;;;;;;-141.50;100.00;63355.56;4909889;29;20582;-76
2022/02/16 02:41:25;;;;;;;5.93;1.52;;;;;;;-141.50;100.00;63355.56;4913274;29;20456;-77
2022/02/16 02:43:52;;;;;;;3.05;1.30;;;;;;;-141.50;100.00;63355.56;4914489;29;20052;-76
2022/02/16 02:46:20;;;;;;;4.93;1.40;;;;;;;-141.50;100.00;63355.56;4916136;29;20052;-77
2022/02/16 02:48:46;;;;;;;5.40;1.67;;;;;;;-141.50;100.00;63355.56;4915535;29;20144;-77
2022/02/16 02:51:14;;;;;;;4.78;1.70;;;;;;;-141.50;100.00;63355.56;4913305;29;20052;-77
2022/02/16 02:53:41;;;;;;;3.45;1.40;;;;;;;-141.50;100.00;63355.56;4916104;29;20052;-78
2022/02/16 02:56:08;;;;;;;3.17;1.27;;;;;;;-141.50;100.00;63355.56;4915205;29;20052;-77
2022/02/16 02:58:35;;;;;;;3.80;1.38;;;;;;;-141.50;100.00;63355.56;4914834;29;20143;-78
2022/02/16 03:01:03;;;;;;;4.72;1.42;;;;;;;-141.50;100.00;63355.56;4914950;29;20052;-77
2022/02/16 03:03:35;;;;;;;4.00;1.20;;;;;;;-141.50;100.00;63355.56;4914537;29;20059;-77
2022/02/16 03:06:04;;;;;;;4.40;1.38;;;;;;;-141.50;100.00;63355.56;4914762;29;20052;-78
2022/02/16 03:08:30;;;;;;;4.28;1.35;;;;;;;-141.50;100.00;63355.56;4912874;29;20576;-79
2022/02/16 03:11:00;;;;;;;5.90;1.23;;;;;;;-141.50;100.00;63355.56;4912491;29;20052;-77
2022/02/16 03:13:27;;;;;;;5.00;1.10;;;;;;;-141.50;100.00;63355.56;4918041;29;20051;-77
2022/02/16 03:15:54;;;;;;;8.70;1.30;;;;;;;-141.50;100.00;63355.56;4933885;29;20060;-78
2022/02/16 03:18:21;;;;;;;6.30;0.90;;;;;;;-141.50;100.00;63355.56;4918683;29;20131;-78
2022/02/16 03:20:50;;;;;;;3.55;1.30;;;;;;;-141.50;100.00;63355.56;4912962;29;20056;-78
2022/02/16 03:23:17;;;;;;;3.78;1.02;;;;;;;-141.50;100.00;63355.56;4912665;29;20048;-78
2022/02/16 03:25:44;;;;;;;5.10;1.05;;;;;;;-141.50;100.00;63355.56;4914479;29;20468;-77
2022/02/16 03:28:11;;;;;;;4.28;1.20;;;;;;;-141.50;100.00;63355.56;4914332;29;20048;-78
2022/02/16 03:30:37;;;;;;;4.28;1.25;;;;;;;-141.50;100.00;63355.56;4894197;29;20057;-78
2022/02/16 03:33:24;;;;;;;5.75;1.10;;;;;;;-141.50;100.00;63355.56;4896519;29;20420;-79
2022/02/16 03:35:50;;;;;;;7.65;1.33;;;;;;;-141.50;100.00;63355.56;4895258;29;20115;-75
2022/02/16 03:38:17;;;;;;;5.40;1.38;;;;;;;-141.50;100.00;63355.56;4895743;29;20071;-79
2022/02/16 03:40:43;;;;;;;5.50;1.15;;;;;;;-141.50;100.00;63355.56;4896668;29;20103;-78
2022/02/16 03:43:10;;;;;;;3.78;1.10;;;;;;;-141.50;100.00;63355.56;4897194;29;20135;-79
2022/02/16 03:45:36;;;;;;;4.25;0.95;;;;;;;-141.50;100.00;63355.56;4895504;29;20064;-78
2022/02/16 03:48:03;;;;;;;2.25;0.82;;;;;;;-141.50;100.00;63355.56;4895699;29;20455;-78
2022/02/16 03:50:30;;;;;;;2.65;0.95;;;;;;;-141.50;100.00;63355.56;4894363;29;20056;-79
2022/02/16 03:52:56;;;;;;;3.78;0.90;;;;;;;-141.50;100.00;63355.56;4895009;29;20060;-78
2022/02/16 03:55:23;;;;;;;1.77;0.75;;;;;;;-141.50;100.00;63355.56;4896178;29;20504;-78
2022/02/16 03:57:49;;;;;;;1.95;0.77;;;;;;;-141.50;100.00;63355.56;4896497;29;20100;-77
2022/02/16 04:00:16;;;;;;;3.42;0.82;;;;;;;-141.50;100.00;63355.56;4894600;29;20438;-76
2022/02/16 04:02:49;;;;;;;3.70;0.85;;;;;;;-141.50;100.00;63355.56;4895602;29;20144;-77
2022/02/16 04:05:21;;;;;;;3.75;1.10;;;;;;;-141.50;100.00;63355.56;4894999;29;20063;-77
2022/02/16 04:07:48;;;;;;;2.95;0.70;;;;;;;-141.50;100.00;63355.56;4894097;29;20441;-77
2022/02/16 04:10:14;;;;;;;1.40;0.73;;;;;;;-141.50;100.00;63355.56;4893330;29;20415;-78
2022/02/16 04:12:43;;;;;;;6.47;0.95;;;;;;;-141.50;100.00;63355.56;4896040;29;20059;-78
2022/02/16 04:15:10;;;;;;;2.85;0.88;;;;;;;-141.50;100.00;63355.56;4894973;29;20053;-77
2022/02/16 04:17:36;;;;;;;2.08;0.80;;;;;;;-141.50;100.00;63355.56;4895856;29;20652;-78
2022/02/16 04:20:03;;;;;;;2.47;0.77;;;;;;;-141.50;100.00;63355.56;4894663;29;20522;-78
2022/02/16 04:22:31;;;;;;;3.45;0.90;;;;;;;-141.50;100.00;63355.56;4894634;29;20052;-77
2022/02/16 04:24:57;;;;;;;6.30;1.20;;;;;;;-141.50;100.00;63355.56;4895278;29;20052;-78
2022/02/16 04:27:24;;;;;;;3.10;0.90;;;;;;;-141.50;100.00;63355.56;4896145;29;20053;-77
2022/02/16 04:29:51;;;;;;;1.85;0.80;;;;;;;-141.50;100.00;63355.56;4893646;29;20585;-78
2022/02/16 04:32:17;;;;;;;2.70;0.80;;;;;;;-141.50;100.00;63355.56;4895071;29;20121;-78
2022/02/16 04:34:44;;;;;;;3.20;0.90;;;;;;;-141.50;100.00;63355.56;4894770;29;20060;-77
2022/02/16 04:37:10;;;;;;;3.97;0.93;;;;;;;-141.50;100.00;63355.56;4893417;29;20056;-77
2022/02/16 04:39:37;;;;;;;3.53;0.93;;;;;;;-141.50;100.00;63355.56;4894409;29;20112;-77
2022/02/16 04:42:04;;;;;;;2.33;0.77;;;;;;;-141.50;100.00;63355.56;4894693;29;20049;-77
2022/02/16 04:44:30;;;;;;;3.58;0.70;;;;;;;-141.50;100.00;63355.56;4893650;29;20056;-77
2022/02/16 04:46:57;;;;;;;1.88;0.82;;;;;;;-141.50;100.00;63355.56;4895413;29;20059;-78
2022/02/16 04:49:24;;;;;;;1.67;0.70;;;;;;;-141.50;100.00;63355.56;4894196;29;20611;-75
2022/02/16 04:51:50;;;;;;;3.42;0.80;;;;;;;-141.50;100.00;63355.56;4892434;29;20581;-78
2022/02/16 04:54:17;;;;;;;3.17;0.90;;;;;;;-141.50;100.00;63355.56;4895201;29;20110;-75
2022/02/16 04:56:43;;;;;;;3.60;1.05;;;;;;;-141.50;100.00;63355.56;4894351;29;20052;-77
2022/02/16 04:59:10;;;;;;;2.35;0.90;;;;;;;-141.50;100.00;63355.56;4895298;29;20048;-76
2022/02/16 05:01:37;;;;;;;2.85;0.73;;;;;;;-141.50;100.00;63355.56;4895055;29;20045;-77
2022/02/16 05:04:03;;;;;;;1.70;0.80;;;;;;;-141.50;100.00;63355.56;4892657;29;20802;-76
2022/02/16 05:06:30;;;;;;;1.85;0.80;;;;;;;-141.50;100.00;63355.56;4894388;29;20056;-79
2022/02/16 05:08:58;;;;;;;1.83;0.70;;;;;;;-141.50;100.00;63355.56;4894110;29;20095;-76
2022/02/16 05:11:25;;;;;;;1.25;0.70;;;;;;;-141.50;100.00;63355.56;4894658;29;20068;-77
2022/02/16 05:13:52;;;;;;;1.67;0.80;;;;;;;-141.50;100.00;63355.56;4893008;29;20466;-78
2022/02/16 05:16:19;;;;;;;5.00;0.80;;;;;;;-141.50;100.00;63355.56;4894848;29;20176;-77
2022/02/16 05:18:45;;;;;;;2.55;0.80;;;;;;;-141.50;100.00;63355.56;4894605;29;20056;-77
2022/02/16 05:21:12;;;;;;;1.30;0.75;;;;;;;-141.50;100.00;63355.56;4894246;29;20140;-78
2022/02/16 05:23:40;;;;;;;1.35;0.90;;;;;;;-141.50;100.00;63355.56;4894922;29;20453;-77
2022/02/16 05:26:06;;;;;;;3.20;0.75;;;;;;;-141.50;100.00;63355.56;4897242;29;20080;-78
2022/02/16 05:28:33;;;;;;;2.20;0.60;;;;;;;-141.50;100.00;63355.56;4903819;29;20107;-77
2022/02/16 05:30:59;;;;;;;2.97;0.80;;;;;;;-141.50;100.00;63355.56;4916563;29;20622;-78
2022/02/16 05:33:28;;;;;;;2.70;0.85;;;;;;;-141.50;100.00;63355.56;4923150;29;20051;-79
2022/02/16 05:35:56;;;;;;;5.00;1.00;;;;;;;-141.50;100.00;63355.56;4914539;29;20052;-78
2022/02/16 05:38:22;;;;;;;2.47;0.77;;;;;;;-141.50;100.00;63355.56;4915731;29;20119;-78
2022/02/16 05:40:49;;;;;;;1.33;0.70;;;;;;;-141.50;100.00;63355.56;4914761;29;20052;-78
2022/02/16 05:43:17;;;;;;;1.98;0.70;;;;;;;-141.50;100.00;63355.56;4914689;29;20262;-78
2022/02/16 05:45:44;;;;;;;2.08;0.68;;;;;;;-141.50;100.00;63355.56;4915026;29;20051;-79
2022/02/16 05:48:19;;;;;;;2.03;0.60;;;;;;;-141.50;100.00;63355.56;4922602;29;20108;-78
2022/02/16 05:50:47;;;;;;;2.50;1.08;;;;;;;-141.50;100.00;63355.56;4926181;29;20060;-78
2022/02/16 05:53:15;;;;;;;3.05;0.88;;;;;;;-141.50;100.00;63355.56;4914849;29;20107;-78
2022/02/16 05:55:41;;;;;;;3.83;0.70;;;;;;;-141.50;100.00;63355.56;4911474;29;20056;-78
2022/02/16 05:58:08;;;;;;;1.70;0.77;;;;;;;-141.50;100.00;63355.56;4912004;29;20050;-78
2022/02/16 06:00:35;;;;;;;2.00;0.60;;;;;;;-141.50;100.00;63355.56;4911645;29;20396;-77
2022/02/16 06:03:01;;;;;;;2.13;0.70;;;;;;;-141.50;100.00;63355.56;4911682;29;20096;-78
2022/02/16 06:05:28;;;;;;;1.00;0.50;;;;;;;-141.50;100.00;63355.56;4913034;29;20147;-77
2022/02/16 06:07:55;;;;;;;2.22;0.70;;;;;;;-141.50;100.00;63355.56;4912424;29;20056;-78
2022/02/16 06:10:22;;;;;;;3.90;0.60;;;;;;;-141.50;100.00;63355.56;4910252;29;20052;-78
2022/02/16 06:12:48;;;;;;;1.60;0.60;;;;;;;-141.50;100.00;63355.56;4912891;29;20056;-77
2022/02/16 06:15:15;;;;;;;0.88;0.50;;;;;;;-141.50;100.00;63355.56;4911215;29;20074;-77
2022/02/16 06:17:42;;;;;;;2.45;0.55;;;;;;;-141.50;100.00;63355.56;4911355;29;20470;-79
2022/02/16 06:20:09;;;;;;;2.45;0.70;;;;;;;-141.50;100.00;63355.56;4908355;29;20079;-78
2022/02/16 06:22:35;;;;;;;1.88;0.70;;;;;;;-141.50;100.00;63355.56;4907063;29;20053;-78
2022/02/16 06:25:03;;;;;;;1.60;0.50;;;;;;;-141.50;100.00;63355.56;4893306;29;20052;-78
2022/02/16 06:27:31;;;;;;;1.67;0.68;;;;;;;-141.50;100.00;63355.56;4909121;29;20048;-77
2022/02/16 06:29:58;;;;;;;1.98;0.75;;;;;;;-141.50;100.00;63355.56;4908201;29;20060;-78
2022/02/16 06:32:25;;;;;;;2.58;0.70;;;;;;;-141.50;100.00;63355.56;4894341;29;20064;-78
2022/02/16 06:34:51;;;;;;;2.85;0.60;;;;;;;-141.50;100.00;63355.56;4894973;29;20063;-77
2022/02/16 06:37:18;;;;;;;1.13;0.60;;;;;;;-141.50;100.00;63355.56;4911308;29;20059;-77
2022/02/16 06:39:45;;;;;;;1.17;0.60;;;;;;;-141.50;100.00;63355.56;4909904;29;20053;-78
2022/02/16 06:42:12;;;;;;;3.10;0.60;;;;;;;-141.50;100.00;63355.56;4909323;29;20414;-76
2022/02/16 06:44:38;;;;;;;1.08;0.60;;;;;;;-141.50;100.00;63355.56;4909048;29;20041;-78
2022/02/16 06:47:05;;;;;;;2.72;0.70;;;;;;;-141.50;100.00;63355.56;4893946;29;20429;-78
2022/02/16 06:49:32;;;;;;;2.20;0.68;;;;;;;-141.50;100.00;63355.56;4892933;29;20070;-77
2022/02/16 06:51:58;;;;;;;1.10;0.52;;;;;;;-141.50;100.00;63355.56;4909138;29;20056;-80
2022/02/16 06:54:26;;;;;;;3.53;0.60;;;;;;;-141.50;100.00;63355.56;4911767;29;20049;-79
2022/02/16 06:56:53;;;;;;;1.75;0.60;;;;;;;-141.50;100.00;63355.56;4909829;29;20064;-77
2022/02/16 06:59:19;;;;;;;5.80;0.65;;;;;;;-141.50;100.00;63355.56;4908690;29;20049;-77
2022/02/16 07:01:46;;;;;;;2.20;0.60;;;;;;;-141.50;100.00;63355.56;4907397;29;20063;-77
2022/02/16 07:04:12;;;;;;;6.00;0.73;;;;;;;-141.50;100.00;63355.56;4909790;29;20055;-77
2022/02/16 07:06:39;;;;;;;2.05;0.65;;;;;;;-141.50;100.00;63355.56;4910393;29;20070;-77
2022/02/16 07:09:06;;;;;;;2.65;0.65;;;;;;;-141.50;100.00;63355.56;4908532;29;20060;-77
2022/02/16 07:11:32;;;;;;;2.30;0.70;;;;;;;-141.50;100.00;63355.56;4907230;29;20052;-76
2022/02/16 07:13:59;;;;;;;2.17;0.65;;;;;;;-141.50;100.00;63355.56;4892800;29;20057;-76
2022/02/16 07:16:26;;;;;;;2.47;0.77;;;;;;;-141.50;100.00;63355.56;4908882;29;20108;-77
2022/02/16 07:18:52;;;;;;;3.88;0.73;;;;;;;-141.50;100.00;63355.56;4894670;29;20406;-77
2022/02/16 07:21:23;;;;;;;4.07;0.80;;;;;;;-141.50;100.00;63355.56;4896506;29;20056;-77
2022/02/16 07:23:50;;;;;;;1.55;0.73;;;;;;;-141.50;100.00;63355.56;4910852;29;20049;-77
2022/02/16 07:26:18;;;;;;;1.30;0.73;;;;;;;-141.50;100.00;63355.56;4907754;29;20163;-76
2022/02/16 07:28:44;;;;;;;4.43;0.70;;;;;;;-141.50;100.00;63355.56;4895725;29;20053;-77
2022/02/16 07:31:11;;;;;;;3.55;0.80;;;;;;;-141.50;100.00;63355.56;4895922;29;20052;-77
2022/02/16 07:33:38;;;;;;;3.22;0.80;;;;;;;-141.50;100.00;63355.56;4910634;29;20060;-76
2022/02/16 07:36:05;;;;;;;1.50;0.70;;;;;;;-141.50;100.00;63355.56;4896356;29;20054;-79
2022/02/16 07:38:33;;;;;;;1.38;0.60;;;;;;;-141.50;100.00;63355.56;4909563;29;20049;-79
2022/02/16 07:41:00;;;;;;;3.60;0.85;;;;;;;-141.50;100.00;63355.56;4895189;29;20040;-78
2022/02/16 07:43:28;;;;;;;1.73;0.70;;;;;;;-141.50;100.00;63355.56;4895770;29;20068;-77
2022/02/16 07:45:55;;;;;;;3.28;0.90;;;;;;;-141.50;100.00;63355.56;4896053;29;20060;-78
2022/02/16 07:48:22;;;;;;;1.15;0.50;;;;;;;-141.50;100.00;63355.56;4910214;29;20076;-78
2022/02/16 07:50:49;;;;;;;4.80;0.73;;;;;;;-141.50;100.00;63355.56;4908753;29;20416;-79
2022/02/16 07:53:16;;;;;;;3.28;0.82;;;;;;;-141.50;100.00;63355.56;4896199;29;20068;-78
2022/02/16 07:55:43;;;;;;;1.70;0.70;;;;;;;-141.50;100.00;63355.56;4910268;29;20402;-78
2022/02/16 07:58:10;;;;;;;1.70;0.80;;;;;;;-141.50;100.00;63355.56;4910779;29;20056;-79
2022/02/16 08:00:37;;;;;;;1.70;0.70;;;;;;;-141.50;100.00;63355.56;4895418;29;20051;-78
2022/02/16 08:03:05;;;;;;;3.38;0.70;;;;;;;-141.50;100.00;63355.56;4909778;29;20063;-77
2022/02/16 08:05:34;;;;;;;4.32;0.57;;;;;;;-141.50;100.00;63355.56;4909568;29;20052;-77
2022/02/16 08:08:01;;;;;;;1.30;0.60;;;;;;;-141.50;100.00;63355.56;4909679;29;20063;-78
2022/02/16 08:10:28;;;;;;;4.63;0.60;;;;;;;-141.50;100.00;63355.56;4908616;29;20052;-78
2022/02/16 08:13:01;;;;;;;0.80;0.43;;;;;;;-141.50;100.00;63355.56;4909508;29;20159;-78
2022/02/16 08:15:29;;;;;;;1.15;0.60;;;;;;;-141.50;100.00;63355.56;4894522;29;20074;-77
2022/02/16 08:17:56;;;;;;;1.33;0.70;;;;;;;-141.50;100.00;63355.56;4909509;29;20056;-78
2022/02/16 08:20:23;;;;;;;1.83;0.60;;;;;;;-141.50;100.00;63355.56;4908873;29;20048;-78
2022/02/16 08:22:49;;;;;;;2.35;0.70;;;;;;;-141.50;100.00;63355.56;4895812;29;20045;-79
2022/02/16 08:25:18;;;;;;;1.55;0.57;;;;;;;-141.50;100.00;63355.56;4895097;29;20506;-78
2022/02/16 08:27:45;;;;;;;2.67;0.65;;;;;;;-141.50;100.00;63355.56;4911362;29;20079;-79
2022/02/16 08:30:13;;;;;;;4.72;0.80;;;;;;;-141.50;100.00;63355.56;4910233;29;20489;-79
2022/02/16 08:32:40;;;;;;;2.08;0.70;;;;;;;-141.50;100.00;63355.56;4896609;29;20045;-79
2022/02/16 08:35:09;;;;;;;3.22;0.70;;;;;;;-141.50;100.00;63355.56;4909378;29;20155;-79
2022/02/16 08:37:37;;;;;;;4.35;0.60;;;;;;;-141.50;100.00;63355.56;4897473;29;20442;-75
2022/02/16 08:40:05;;;;;;;1.17;0.65;;;;;;;-141.50;100.00;63355.56;4895206;29;20060;-78
2022/02/16 08:42:33;;;;;;;0.50;0.43;;;;;;;-141.50;100.00;63355.56;4909824;29;20048;-77
2022/02/16 08:45:00;;;;;;;2.35;0.43;;;;;;;-141.50;100.00;63355.56;4909031;29;20057;-77
2022/02/16 08:47:27;;;;;;;3.55;0.70;;;;;;;-141.50;100.00;63355.56;4896711;29;20352;-77
2022/02/16 08:49:54;;;;;;;2.40;0.52;;;;;;;-141.50;100.00;63355.56;4895370;29;20061;-78
2022/02/16 08:52:21;;;;;;;1.27;0.50;;;;;;;-141.50;100.00;63355.56;4895454;29;20524;-78
2022/02/16 08:54:47;;;;;;;1.77;0.68;;;;;;;-141.50;100.00;63355.56;4895657;29;20071;-78
2022/02/16 08:57:14;;;;;;;1.30;0.40;;;;;;;-141.50;100.00;63355.56;4910035;29;20068;-78
2022/02/16 08:59:41;;;;;;;2.17;0.40;;;;;;;-141.50;100.00;63355.56;4911065;29;20501;-78
2022/02/16 09:02:08;;;;;;;0.82;0.50;;;;;;;-141.50;100.00;63355.56;4910585;29;20056;-78
2022/02/16 09:04:35;;;;;;;1.73;0.70;;;;;;;-141.50;100.00;63355.56;4910033;29;20052;-78
2022/02/16 09:09:47;;;;;;;0.90;0.40;;;;;;;-141.50;100.00;63355.56;4900695;29;20449;-79
2022/02/16 09:12:13;;;;;;;1.20;0.50;;;;;;;-141.50;100.00;63355.56;4901196;29;20070;-78
2022/02/16 09:14:40;;;;;;;1.00;0.30;;;;;;;-141.50;100.00;63355.56;4911375;29;20052;-77
2022/02/16 09:17:07;;;;;;;0.60;0.40;;;;;;;-141.50;100.00;63355.56;4912740;29;20096;-78
2022/02/16 09:19:35;;;;;;;0.70;0.40;;;;;;;-141.50;100.00;63355.56;4908943;29;20041;-76
2022/02/16 09:22:02;;;;;;;0.60;0.30;;;;;;;-141.50;100.00;63355.56;4930737;29;20056;-80
2022/02/16 09:24:30;;;;;;;0.73;0.40;;;;;;;-141.50;100.00;63355.56;4923615;29;20063;-80
2022/02/16 09:26:56;;;;;;;1.77;0.40;;;;;;;-141.50;100.00;63355.56;4897517;29;20083;-77
2022/02/16 09:29:23;;;;;;;1.17;0.40;;;;;;;-141.50;100.00;63355.56;4895810;29;20063;-77
2022/02/16 09:31:52;;;;;;;0.90;0.40;;;;;;;-141.50;100.00;63355.56;4894744;29;20291;-77
2022/02/16 09:34:20;;;;;;;1.00;0.40;;;;;;;-141.50;100.00;63355.56;4895368;29;20057;-80
2022/02/16 09:36:47;;;;;;;0.80;0.47;;;;;;;-141.50;100.00;63355.56;4899488;29;20461;-79
2022/02/16 09:39:14;;;;;;;1.10;0.40;;;;;;;-141.50;100.00;63355.56;4913106;29;20136;-79
2022/02/16 09:41:44;;;;;;;1.33;0.40;;;;;;;-141.50;100.00;63355.56;4894596;29;20049;-78
2022/02/16 09:44:16;;;;;;;0.77;0.43;;;;;;;-141.50;100.00;63355.56;4895927;29;20108;-79
2022/02/16 09:46:43;;;;;;;0.73;0.40;;;;;;;-141.50;100.00;63355.56;4910344;29;20168;-79
2022/02/16 09:49:12;;;;;;;0.88;0.40;;;;;;;-141.50;100.00;63355.56;4894553;29;20391;-79
2022/02/16 09:51:39;;;;;;;0.65;0.40;;;;;;;-141.50;100.00;63355.56;4893838;29;20041;-79
2022/02/16 09:54:06;;;;;;;1.25;0.40;;;;;;;-141.50;100.00;63355.56;4909913;29;20058;-79
2022/02/16 09:56:33;;;;;;;0.55;0.40;;;;;;;-141.50;100.00;63355.56;4909724;29;20063;-78
2022/02/16 09:59:01;;;;;;;1.55;0.40;;;;;;;-141.50;100.00;63355.56;4908459;29;20049;-78
2022/02/16 10:01:28;;;;;;;0.82;0.40;;;;;;;-141.50;100.00;63355.56;4909365;29;20084;-79
2022/02/16 10:03:59;;;;;;;0.57;0.40;;;;;;;-141.50;100.00;63355.56;4894442;29;20044;-79
2022/02/16 10:06:35;;;;;;;1.48;0.60;;;;;;;-141.50;100.00;63355.56;4908712;29;20316;-78
2022/02/16 10:09:02;;;;;;;0.95;0.57;;;;;;;-141.50;100.00;63355.56;4895154;29;20052;-78
2022/02/16 10:11:29;;;;;;;3.92;0.40;;;;;;;-141.50;100.00;63355.56;4894747;29;20100;-79
2022/02/16 10:14:35;;;;;;;2.22;0.50;;;;;;;-141.50;100.00;63355.56;4896741;29;20080;-79
2022/02/16 10:17:22;;;;;;;;;;;;;;;-141.50;100.00;63355.56;4855715;29;20438;-78
2022/02/16 10:20:02;;;;;;;3.05;0.50;;;;;;;-141.50;100.00;63355.56;4837615;29;19967;-79
2022/02/16 10:22:48;;;;;;;1.52;0.43;;;;;;;-141.50;100.00;63355.56;4877052;29;20148;-78
2022/02/16 10:25:20;;;;;;;0.50;0.40;;;;;;;-141.50;100.00;63355.56;4909551;29;20049;-79
2022/02/16 10:28:04;;;;;;;1.95;0.50;;;;;;;-141.50;100.00;63355.56;4911354;29;20410;-80
2022/02/16 10:30:32;;;;;;;1.00;0.50;;;;;;;-141.50;100.00;63355.56;4909180;29;20181;-79
2022/02/16 10:33:25;;;;;;;3.47;0.40;;;;;;;-141.50;100.00;63355.56;4896313;29;20063;-79
2022/02/16 10:36:04;;;;;;;3.95;0.70;;;;;;;-141.50;100.00;63355.56;4910187;29;20064;-79
2022/02/16 10:38:32;;;;;;;1.52;0.40;;;;;;;-141.50;100.00;63355.56;4910369;29;20521;-79
2022/02/16 10:41:08;;;;;;;0.80;0.52;;;;;;;-141.50;100.00;63355.56;4909619;29;20068;-78
2022/02/16 10:43:40;;;;;;;0.95;0.43;;;;;;;-141.50;100.00;63355.56;4909342;29;20053;-78
2022/02/16 10:46:19;;;;;;;1.15;0.40;;;;;;;-141.50;100.00;63355.56;4894452;29;20107;-79
2022/02/16 10:48:46;;;;;;;1.85;0.40;;;;;;;-141.50;100.00;63355.56;4908548;29;20137;-78
2022/02/16 10:51:20;;;;;;;1.02;0.52;;;;;;;-141.50;100.00;63355.56;4907036;29;20059;-79
2022/02/16 10:53:53;;;;;;;3.60;0.60;;;;;;;-141.50;100.00;63355.56;4908754;29;20055;-78
2022/02/16 10:56:19;;;;;;;2.17;0.50;;;;;;;-141.50;100.00;63355.56;4894252;29;20055;-77
2022/02/16 10:58:46;;;;;;;0.95;0.47;;;;;;;-141.50;100.00;63355.56;4902490;29;20301;-78
2022/02/16 11:01:15;;;;;;;2.35;0.57;;;;;;;-141.50;100.00;63355.56;4911083;29;20128;-79
2022/02/16 11:03:47;;;;;;;2.70;0.50;;;;;;;-141.50;100.00;63355.56;4912034;29;20056;-78
2022/02/16 11:06:16;;;;;;;0.50;0.30;;;;;;;-141.50;100.00;63355.56;4911206;29;20060;-78
2022/02/16 11:08:44;;;;;;;1.40;0.57;;;;;;;-141.50;100.00;63355.56;4898422;29;20052;-79
2022/02/16 11:11:21;;;;;;;1.45;0.40;;;;;;;-141.50;100.00;63355.56;4897448;29;20076;-79
2022/02/16 11:13:59;;;;;;;3.00;0.60;;;;;;;-141.50;100.00;63355.56;4896956;29;20113;-79
2022/02/16 11:16:26;;;;;;;3.17;0.70;;;;;;;-141.50;100.00;63355.56;4911162;29;20508;-79